Time;durP1;ratioP1;P1;durP2;ratioP2;P2;SDS_P1;SDS_P2;PMS_P1;PMS_P2;Temp;Humidity;BMP_temperature;BMP_pressure;BME280_temperature;BME280_humidity;BME280_pressure;Samples;Min_cycle;Max_cycle;Signal;HPM_P1;HPM_P2
2023/05/24 00:00:41;;;;;;;18.92;7.03;;;9.80;99.90;;;;;;5026320;28;20108;-84
2023/05/24 00:03:08;;;;;;;18.40;6.82;;;9.80;99.90;;;;;;5033105;28;20057;-83
2023/05/24 00:05:36;;;;;;;23.35;7.93;;;9.80;99.90;;;;;;5016011;28;20038;-83
2023/05/24 00:08:03;;;;;;;18.02;6.82;;;9.80;99.90;;;;;;5033281;28;20033;-83
2023/05/24 00:10:29;;;;;;;18.88;7.50;;;9.70;99.90;;;;;;5017413;28;20038;-83
2023/05/24 00:12:55;;;;;;;18.88;6.93;;;9.70;99.90;;;;;;5032968;28;20037;-83
2023/05/24 00:15:20;;;;;;;20.40;7.32;;;9.60;99.90;;;;;;5019782;28;20386;-83
2023/05/24 00:17:46;;;;;;;16.83;6.80;;;9.60;99.90;;;;;;5043287;28;20025;-83
2023/05/24 00:20:13;;;;;;;21.15;7.28;;;9.50;99.90;;;;;;5030260;28;20477;-83
2023/05/24 00:22:39;;;;;;;19.15;7.35;;;9.50;99.90;;;;;;5031303;28;20045;-83
2023/05/24 00:25:08;;;;;;;16.58;7.03;;;9.40;99.90;;;;;;5028910;28;20061;-83
2023/05/24 00:27:36;;;;;;;15.95;7.30;;;9.40;99.90;;;;;;5017462;28;20097;-82
2023/05/24 00:30:02;;;;;;;14.13;7.18;;;9.30;99.90;;;;;;5037027;28;20389;-83
2023/05/24 00:32:28;;;;;;;15.52;7.00;;;9.20;99.90;;;;;;5029910;28;20040;-83
2023/05/24 00:34:55;;;;;;;13.27;6.75;;;9.10;99.90;;;;;;5027061;28;20025;-83
2023/05/24 00:37:22;;;;;;;22.08;7.80;;;9.00;99.90;;;;;;5032815;28;20029;-83
2023/05/24 00:39:47;;;;;;;18.45;8.02;;;8.90;99.90;;;;;;5042726;28;20095;-83
2023/05/24 00:42:13;;;;;;;26.85;8.77;;;8.80;99.90;;;;;;5033317;28;20025;-83
2023/05/24 00:44:39;;;;;;;23.38;7.78;;;8.80;99.90;;;;;;5022920;28;20033;-83
2023/05/24 00:47:05;;;;;;;21.20;8.15;;;8.70;99.90;;;;;;5023303;28;20036;-83
2023/05/24 00:49:31;;;;;;;17.73;7.30;;;8.60;99.90;;;;;;5016771;28;20029;-83
2023/05/24 00:51:58;;;;;;;28.45;8.57;;;8.50;99.90;;;;;;5038171;28;20037;-83
2023/05/24 00:54:25;;;;;;;18.95;7.88;;;8.50;99.90;;;;;;5036376;28;20461;-83
2023/05/24 00:56:52;;;;;;;21.80;8.07;;;8.50;99.90;;;;;;5030114;28;20022;-83
2023/05/24 00:59:18;;;;;;;20.08;8.25;;;8.50;99.90;;;;;;5029975;28;20029;-83
2023/05/24 01:01:45;;;;;;;25.25;8.50;;;8.40;99.90;;;;;;5023499;28;20028;-83
2023/05/24 01:04:13;;;;;;;17.15;7.72;;;8.30;99.90;;;;;;5013204;28;20021;-82
2023/05/24 01:07:02;;;;;;;22.77;8.43;;;8.30;99.90;;;;;;5029834;28;20030;-82
2023/05/24 01:09:43;;;;;;;25.05;9.48;;;8.20;99.90;;;;;;5044355;28;20036;-82
2023/05/24 01:12:23;;;;;;;19.63;8.13;;;8.10;99.90;;;;;;5020688;28;20588;-82
2023/05/24 01:15:07;;;;;;;19.38;8.05;;;8.10;99.90;;;;;;5029015;28;20032;-82
2023/05/24 01:17:52;;;;;;;30.63;8.30;;;8.00;99.90;;;;;;5029318;28;20507;-82
2023/05/24 01:20:21;;;;;;;30.25;9.25;;;8.00;99.90;;;;;;5026980;28;20092;-83
2023/05/24 01:23:18;;;;;;;18.85;7.50;;;7.90;99.90;;;;;;5014615;28;20065;-82
2023/05/24 01:25:59;;;;;;;16.17;9.30;;;7.90;99.90;;;;;;5024367;28;20117;-83
2023/05/24 01:28:27;;;;;;;22.15;8.27;;;7.90;99.90;;;;;;5018236;28;20030;-82
2023/05/24 01:30:54;;;;;;;27.52;8.95;;;7.90;99.90;;;;;;5028843;28;20669;-82
2023/05/24 01:33:22;;;;;;;23.67;8.20;;;7.90;99.90;;;;;;5021156;28;20030;-82
2023/05/24 01:35:48;;;;;;;19.23;8.45;;;7.80;99.90;;;;;;5028546;28;20396;-82
2023/05/24 01:38:15;;;;;;;17.00;8.13;;;7.80;99.90;;;;;;5028507;28;20026;-82
2023/05/24 01:40:41;;;;;;;21.35;8.65;;;7.70;99.90;;;;;;5029035;28;20109;-82
2023/05/24 01:43:25;;;;;;;27.60;8.85;;;7.70;99.90;;;;;;5028151;28;20031;-82
2023/05/24 01:46:24;;;;;;;30.58;10.35;;;7.90;99.90;;;;;;5039180;28;20056;-82
2023/05/24 01:49:02;;;;;;;19.83;7.22;;;8.00;99.90;;;;;;5027895;28;20385;-82
2023/05/24 01:51:39;;;;;;;23.33;7.65;;;8.00;99.90;;;;;;5029701;28;20029;-82
2023/05/24 01:54:06;;;;;;;25.98;8.55;;;8.10;99.90;;;;;;5037295;28;20121;-82
2023/05/24 01:56:34;;;;;;;21.35;7.93;;;8.20;99.90;;;;;;5031412;28;20030;-82
2023/05/24 01:59:02;;;;;;;24.25;7.57;;;8.30;99.90;;;;;;5032735;28;20033;-82
2023/05/24 02:01:30;;;;;;;18.30;7.15;;;8.30;99.90;;;;;;5028095;28;20022;-82
2023/05/24 02:03:58;;;;;;;22.73;7.35;;;8.40;99.90;;;;;;5020078;28;20474;-81
2023/05/24 02:06:24;;;;;;;18.35;7.68;;;8.40;99.90;;;;;;5028735;28;20021;-82
2023/05/24 02:08:52;;;;;;;19.73;7.38;;;8.40;99.90;;;;;;5025580;28;20017;-82
2023/05/24 02:11:17;;;;;;;18.33;7.05;;;8.40;99.90;;;;;;5031518;28;20080;-82
2023/05/24 02:13:45;;;;;;;24.58;7.50;;;8.40;99.90;;;;;;5035306;28;20421;-83
2023/05/24 02:16:41;;;;;;;22.75;7.25;;;8.40;99.90;;;;;;5028312;28;20041;-82
2023/05/24 02:19:08;;;;;;;20.50;6.65;;;8.30;99.90;;;;;;5032050;28;20409;-82
2023/05/24 02:21:34;;;;;;;20.88;7.85;;;8.30;99.90;;;;;;5029119;28;20044;-82
2023/05/24 02:23:59;;;;;;;21.40;7.13;;;8.30;99.90;;;;;;5027220;28;20018;-82
2023/05/24 02:26:25;;;;;;;25.35;7.15;;;8.30;99.90;;;;;;5032843;28;20033;-82
2023/05/24 02:28:51;;;;;;;27.02;7.40;;;8.20;99.90;;;;;;5028719;28;20373;-83
2023/05/24 02:31:17;;;;;;;15.45;7.15;;;8.20;99.90;;;;;;5043520;28;20061;-83
2023/05/24 02:33:43;;;;;;;18.00;7.32;;;8.20;99.90;;;;;;5035546;28;20100;-83
2023/05/24 02:36:09;;;;;;;21.42;6.95;;;8.20;99.90;;;;;;5035349;28;20025;-83
2023/05/24 02:38:36;;;;;;;24.55;7.15;;;8.20;99.90;;;;;;5032246;28;20034;-82
2023/05/24 02:41:02;;;;;;;17.15;6.65;;;8.10;99.90;;;;;;5030144;28;20029;-82
2023/05/24 02:43:27;;;;;;;23.92;7.25;;;8.10;99.90;;;;;;5026494;28;20469;-82
2023/05/24 02:45:53;;;;;;;20.75;7.75;;;8.10;99.90;;;;;;5031416;28;20037;-83
2023/05/24 02:48:19;;;;;;;26.20;8.02;;;8.10;99.90;;;;;;5030963;28;20087;-83
2023/05/24 02:50:44;;;;;;;18.17;6.53;;;8.10;99.90;;;;;;5023389;28;20405;-83
2023/05/24 02:53:10;;;;;;;18.55;7.32;;;8.10;99.90;;;;;;5015124;28;20504;-83
2023/05/24 02:55:36;;;;;;;21.08;7.18;;;8.10;99.90;;;;;;5041305;28;20023;-82
2023/05/24 02:58:02;;;;;;;16.00;7.55;;;8.00;99.90;;;;;;5034605;28;20128;-83
2023/05/24 03:00:29;;;;;;;25.17;8.27;;;8.00;99.90;;;;;;5024165;28;20037;-83
2023/05/24 03:02:56;;;;;;;24.38;7.63;;;8.10;99.90;;;;;;5028848;28;20029;-83
2023/05/24 03:05:22;;;;;;;23.48;7.25;;;8.10;99.90;;;;;;5042175;28;20473;-83
2023/05/24 03:07:47;;;;;;;23.35;7.35;;;8.00;99.90;;;;;;5023269;28;20120;-82
2023/05/24 03:10:14;;;;;;;20.17;6.63;;;8.00;99.90;;;;;;5033293;28;20121;-83
2023/05/24 03:12:40;;;;;;;18.35;7.32;;;8.00;99.90;;;;;;5031470;28;20544;-82
2023/05/24 03:15:07;;;;;;;24.75;8.55;;;8.00;99.90;;;;;;5022559;28;20393;-82
2023/05/24 03:17:32;;;;;;;21.52;7.07;;;8.00;99.90;;;;;;5031172;28;20005;-82
2023/05/24 03:20:00;;;;;;;32.38;8.60;;;8.00;99.90;;;;;;5041829;28;20070;-82
2023/05/24 03:22:25;;;;;;;28.75;7.50;;;8.00;99.90;;;;;;5032664;28;20029;-82
2023/05/24 03:24:51;;;;;;;21.27;6.93;;;8.00;99.90;;;;;;5028595;28;20029;-82
2023/05/24 03:27:17;;;;;;;28.25;7.13;;;7.90;99.90;;;;;;5034305;28;20112;-83
2023/05/24 03:29:43;;;;;;;26.25;7.53;;;7.90;99.90;;;;;;5027026;28;20510;-82
2023/05/24 03:32:27;;;;;;;21.05;7.28;;;7.90;99.90;;;;;;5031243;28;20448;-83
2023/05/24 03:34:55;;;;;;;16.70;6.70;;;7.80;99.90;;;;;;5029768;28;20400;-82
2023/05/24 03:37:21;;;;;;;24.90;8.27;;;7.70;99.90;;;;;;5012556;28;20026;-82
2023/05/24 03:39:47;;;;;;;24.83;6.72;;;7.70;99.90;;;;;;5027182;28;20025;-82
2023/05/24 03:42:35;;;;;;;24.95;7.45;;;7.70;99.90;;;;;;5030998;28;20037;-82
2023/05/24 03:45:01;;;;;;;24.10;6.82;;;7.70;99.90;;;;;;5030654;28;20025;-83
2023/05/24 03:47:30;;;;;;;31.98;7.00;;;7.60;99.90;;;;;;5007055;28;20032;-82
2023/05/24 03:49:55;;;;;;;24.60;7.28;;;7.60;99.90;;;;;;5036614;28;20033;-82
2023/05/24 03:52:22;;;;;;;24.27;7.35;;;7.70;99.90;;;;;;5004235;28;20426;-82
2023/05/24 03:54:48;;;;;;;22.88;7.68;;;7.70;99.90;;;;;;5026918;28;20033;-83
2023/05/24 03:57:14;;;;;;;20.67;7.05;;;7.70;99.90;;;;;;5042136;28;20029;-83
2023/05/24 03:59:42;;;;;;;19.95;7.40;;;7.70;99.90;;;;;;5026049;28;20029;-82
2023/05/24 04:02:07;;;;;;;19.10;7.30;;;7.70;99.90;;;;;;5004801;28;20042;-83
2023/05/24 04:04:41;;;;;;;24.48;8.32;;;7.70;99.90;;;;;;5030195;28;20033;-82
2023/05/24 04:07:10;;;;;;;24.02;8.60;;;7.80;99.90;;;;;;5034441;28;20501;-83
2023/05/24 04:09:37;;;;;;;18.35;7.88;;;7.80;99.90;;;;;;5023726;28;20394;-83
2023/05/24 04:12:02;;;;;;;22.15;7.28;;;7.70;99.90;;;;;;5034673;28;20044;-82
2023/05/24 04:14:28;;;;;;;21.42;7.72;;;7.80;99.90;;;;;;5024650;28;20048;-83
2023/05/24 04:16:54;;;;;;;28.70;7.55;;;7.80;99.90;;;;;;5036093;28;20026;-82
2023/05/24 04:19:20;;;;;;;23.23;7.65;;;7.90;99.90;;;;;;5030929;28;20025;-82
2023/05/24 04:21:45;;;;;;;27.98;6.43;;;7.90;99.90;;;;;;5026016;28;20025;-82
2023/05/24 04:24:15;;;;;;;30.45;7.22;;;7.90;99.90;;;;;;5033038;28;20022;-82
2023/05/24 04:26:43;;;;;;;34.08;7.50;;;7.90;99.90;;;;;;5021759;28;20072;-82
2023/05/24 04:29:09;;;;;;;19.88;6.97;;;8.00;99.90;;;;;;5029069;28;20076;-82
2023/05/24 04:31:35;;;;;;;19.70;7.28;;;8.00;99.90;;;;;;5014831;28;20057;-82
2023/05/24 04:34:01;;;;;;;33.08;7.80;;;8.00;99.90;;;;;;5035275;28;20036;-83
2023/05/24 04:36:27;;;;;;;28.50;7.22;;;8.10;99.90;;;;;;5031475;28;20021;-82
2023/05/24 04:38:54;;;;;;;25.80;6.35;;;8.00;99.90;;;;;;5018740;28;20021;-83
2023/05/24 04:41:21;;;;;;;24.80;7.25;;;8.10;99.90;;;;;;5030599;28;20432;-83
2023/05/24 04:43:46;;;;;;;29.13;6.88;;;8.10;99.90;;;;;;5033232;28;20037;-83
2023/05/24 04:46:12;;;;;;;21.70;6.97;;;8.10;99.90;;;;;;5033155;28;20037;-82
2023/05/24 04:48:38;;;;;;;25.95;7.38;;;8.10;99.90;;;;;;5028606;28;20040;-82
2023/05/24 04:51:04;;;;;;;30.35;6.72;;;8.10;99.90;;;;;;5027923;28;20029;-83
2023/05/24 04:53:29;;;;;;;17.55;6.72;;;8.10;99.90;;;;;;5030943;28;20089;-82
2023/05/24 04:55:55;;;;;;;31.45;8.55;;;8.10;99.90;;;;;;5036196;28;20093;-82
2023/05/24 04:58:21;;;;;;;22.70;6.40;;;8.10;99.90;;;;;;5029778;28;20029;-82
2023/05/24 05:00:46;;;;;;;21.08;6.65;;;8.00;99.90;;;;;;5025887;28;20017;-82
2023/05/24 05:03:12;;;;;;;19.70;7.32;;;7.90;99.90;;;;;;5032712;28;20087;-83
2023/05/24 05:05:38;;;;;;;21.25;6.65;;;7.80;99.90;;;;;;4997436;28;20034;-82
2023/05/24 05:08:04;;;;;;;18.60;6.72;;;7.70;99.90;;;;;;5021373;28;20033;-83
2023/05/24 05:10:29;;;;;;;22.98;7.13;;;7.70;99.90;;;;;;4999182;28;20437;-83
2023/05/24 05:12:55;;;;;;;25.98;7.55;;;7.70;99.90;;;;;;5035503;28;20104;-82
2023/05/24 05:15:22;;;;;;;24.77;7.53;;;7.60;99.90;;;;;;5001454;28;20041;-82
2023/05/24 05:17:49;;;;;;;26.35;7.57;;;7.50;99.90;;;;;;5031291;28;20017;-82
2023/05/24 05:20:15;;;;;;;23.45;7.10;;;7.50;99.90;;;;;;5029508;28;20385;-83
2023/05/24 05:22:49;;;;;;;24.63;7.72;;;7.50;99.90;;;;;;5028936;28;20041;-82
2023/05/24 05:25:15;;;;;;;26.65;7.38;;;7.50;99.90;;;;;;5028145;28;20039;-82
2023/05/24 05:27:41;;;;;;;29.23;7.35;;;7.50;99.90;;;;;;5045582;28;20026;-82
2023/05/24 05:30:07;;;;;;;26.95;7.38;;;7.60;99.90;;;;;;5027865;28;20072;-82
2023/05/24 05:32:33;;;;;;;27.88;7.00;;;7.70;99.90;;;;;;5017047;28;20623;-82
2023/05/24 05:34:59;;;;;;;20.45;6.75;;;7.80;99.90;;;;;;5027105;28;20037;-82
2023/05/24 05:37:25;;;;;;;22.63;6.97;;;8.00;99.90;;;;;;5034551;28;20029;-83
2023/05/24 05:39:50;;;;;;;20.48;6.68;;;8.10;99.90;;;;;;5025562;28;20032;-82
2023/05/24 05:42:16;;;;;;;24.15;6.75;;;8.20;99.90;;;;;;5031974;28;20687;-83
2023/05/24 05:44:42;;;;;;;22.00;6.45;;;8.40;99.90;;;;;;5030209;28;20589;-84
2023/05/24 05:47:08;;;;;;;29.58;7.15;;;8.40;99.90;;;;;;5011584;28;20025;-83
2023/05/24 05:49:37;;;;;;;36.25;7.47;;;8.50;99.90;;;;;;5017026;28;20038;-84
2023/05/24 05:52:06;;;;;;;27.70;7.28;;;8.60;99.90;;;;;;5040538;28;20448;-83
2023/05/24 05:54:31;;;;;;;27.95;7.40;;;8.80;99.90;;;;;;5030634;28;20029;-84
2023/05/24 05:56:58;;;;;;;18.77;5.93;;;8.80;99.90;;;;;;5032031;28;20056;-84
2023/05/24 05:59:23;;;;;;;19.02;6.85;;;8.90;99.90;;;;;;5019644;28;20069;-84
2023/05/24 06:01:50;;;;;;;19.33;6.53;;;9.00;99.90;;;;;;5008555;28;20422;-83
2023/05/24 06:04:15;;;;;;;21.45;7.03;;;8.90;99.90;;;;;;5032489;28;20389;-83
2023/05/24 06:06:43;;;;;;;23.30;6.38;;;9.00;99.90;;;;;;5032436;28;20037;-83
2023/05/24 06:09:08;;;;;;;20.50;5.68;;;9.00;99.90;;;;;;5023958;28;20477;-83
2023/05/24 06:11:34;;;;;;;16.20;6.47;;;9.10;99.90;;;;;;5039744;28;20024;-83
2023/05/24 06:14:00;;;;;;;26.67;8.32;;;9.10;99.90;;;;;;5033341;28;20041;-83
2023/05/24 06:16:26;;;;;;;21.42;6.47;;;9.10;99.90;;;;;;5034371;28;20036;-83
2023/05/24 06:19:07;;;;;;;21.83;6.50;;;9.00;99.90;;;;;;5030345;28;20021;-83
2023/05/24 06:21:36;;;;;;;19.63;7.53;;;8.90;99.90;;;;;;5049823;28;20028;-83
2023/05/24 06:24:02;;;;;;;32.60;8.73;;;8.90;99.90;;;;;;5020870;28;20500;-83
2023/05/24 06:26:29;;;;;;;29.33;7.25;;;8.90;99.90;;;;;;5033483;28;20107;-83
2023/05/24 06:28:55;;;;;;;21.08;6.47;;;8.90;99.90;;;;;;5023808;28;20116;-83
2023/05/24 06:31:20;;;;;;;29.33;6.88;;;8.80;99.90;;;;;;5019306;28;20108;-84
2023/05/24 06:33:46;;;;;;;22.52;6.82;;;8.60;99.90;;;;;;5021145;28;20479;-83
2023/05/24 06:36:12;;;;;;;18.67;6.85;;;8.50;99.90;;;;;;5034610;28;20010;-83
2023/05/24 06:38:38;;;;;;;20.88;6.47;;;8.60;99.90;;;;;;5047070;28;20030;-83
2023/05/24 06:41:04;;;;;;;24.27;7.00;;;8.50;99.90;;;;;;5024563;28;20556;-83
2023/05/24 06:43:29;;;;;;;24.73;7.05;;;8.50;99.90;;;;;;5015763;28;20026;-83
2023/05/24 06:45:55;;;;;;;29.30;7.03;;;8.50;99.90;;;;;;5028043;28;20040;-83
2023/05/24 06:48:21;;;;;;;24.63;6.30;;;8.50;99.90;;;;;;5043218;28;20029;-83
2023/05/24 06:50:47;;;;;;;20.77;6.80;;;8.50;99.90;;;;;;5023742;28;20051;-83
2023/05/24 06:53:13;;;;;;;20.00;6.60;;;8.50;99.90;;;;;;5027737;28;20032;-83
2023/05/24 06:55:39;;;;;;;22.20;6.72;;;8.50;99.90;;;;;;5033566;28;20441;-83
2023/05/24 06:58:05;;;;;;;28.25;7.70;;;8.60;99.90;;;;;;5043947;28;20053;-82
2023/05/24 07:00:31;;;;;;;15.48;5.78;;;8.90;99.90;;;;;;5019489;28;20363;-82
2023/05/24 07:02:57;;;;;;;29.95;6.88;;;8.90;99.90;;;;;;5026322;28;20078;-83
2023/05/24 07:05:23;;;;;;;20.02;6.57;;;8.90;99.90;;;;;;5030373;28;20114;-83
2023/05/24 07:07:48;;;;;;;17.25;5.90;;;8.60;99.90;;;;;;5026160;28;20388;-83
2023/05/24 07:10:14;;;;;;;22.27;7.13;;;8.60;99.90;;;;;;5043405;28;20036;-83
2023/05/24 07:12:40;;;;;;;17.02;6.60;;;8.70;99.90;;;;;;5004793;28;20033;-84
2023/05/24 07:15:08;;;;;;;29.75;7.32;;;8.80;99.90;;;;;;5044421;28;20412;-82
2023/05/24 07:17:34;;;;;;;20.45;7.75;;;9.00;99.90;;;;;;5032378;28;20128;-82
2023/05/24 07:20:01;;;;;;;18.65;6.95;;;9.20;99.90;;;;;;5030683;28;20059;-83
2023/05/24 07:22:27;;;;;;;24.52;6.57;;;9.30;99.90;;;;;;5020964;28;20025;-84
2023/05/24 07:24:54;;;;;;;24.63;6.70;;;9.40;99.90;;;;;;5041817;28;20038;-82
2023/05/24 07:27:19;;;;;;;31.52;6.53;;;9.40;99.90;;;;;;5048570;28;20477;-82
2023/05/24 07:29:45;;;;;;;19.30;6.82;;;9.60;99.90;;;;;;5028012;28;20037;-82
2023/05/24 07:32:11;;;;;;;25.80;6.90;;;9.70;99.90;;;;;;5015005;28;20038;-83
2023/05/24 07:34:38;;;;;;;18.38;5.90;;;9.70;99.90;;;;;;5019245;28;20029;-83
2023/05/24 07:37:04;;;;;;;19.42;6.47;;;9.90;99.90;;;;;;5029092;28;20032;-85
2023/05/24 07:39:31;;;;;;;19.15;6.53;;;10.10;99.90;;;;;;5015041;28;20381;-83
2023/05/24 07:41:56;;;;;;;23.98;9.50;;;10.20;99.90;;;;;;5033051;28;20014;-84
2023/05/24 07:44:23;;;;;;;18.50;5.80;;;10.40;99.90;;;;;;5031987;28;20550;-84
2023/05/24 07:46:49;;;;;;;20.50;5.03;;;10.70;99.90;;;;;;5023894;28;20026;-83
2023/05/24 07:49:15;;;;;;;16.92;5.20;;;11.80;99.90;;;;;;5039156;28;20036;-84
2023/05/24 07:51:41;;;;;;;18.92;5.20;;;13.50;99.90;;;;;;5017570;28;20021;-83
2023/05/24 07:54:06;;;;;;;16.33;4.18;;;14.60;99.90;;;;;;5032392;28;20473;-84
2023/05/24 07:56:32;;;;;;;10.75;4.75;;;15.00;99.90;;;;;;5023509;28;20025;-83
2023/05/24 07:59:03;;;;;;;33.55;15.48;;;15.60;99.90;;;;;;5035908;28;20381;-83
2023/05/24 08:01:33;;;;;;;15.00;4.70;;;16.40;99.90;;;;;;5046539;28;20116;-83
2023/05/24 08:04:02;;;;;;;15.48;4.20;;;16.80;99.90;;;;;;5029796;28;20034;-83
2023/05/24 08:06:31;;;;;;;18.33;4.47;;;17.20;99.90;;;;;;5019987;28;20025;-83
2023/05/24 08:08:57;;;;;;;13.73;3.42;;;18.20;99.90;;;;;;5031798;28;20025;-83
2023/05/24 08:11:23;;;;;;;14.15;4.72;;;19.30;96.40;;;;;;5037457;28;20507;-83
2023/05/24 08:13:49;;;;;;;10.77;3.60;;;19.70;93.40;;;;;;5024300;28;20534;-84
2023/05/24 08:16:15;;;;;;;13.77;3.60;;;19.30;93.00;;;;;;5029180;28;20040;-83
2023/05/24 08:18:40;;;;;;;12.95;3.40;;;19.50;90.20;;;;;;5028505;28;20033;-83
2023/05/24 08:21:07;;;;;;;13.35;3.78;;;19.90;90.70;;;;;;5027442;28;20370;-83
2023/05/24 08:23:33;;;;;;;17.45;4.78;;;20.10;91.30;;;;;;5022651;28;20029;-83
2023/05/24 08:25:59;;;;;;;18.42;3.47;;;20.10;90.30;;;;;;5023004;28;20507;-82
2023/05/24 08:28:25;;;;;;;12.45;3.42;;;20.10;85.10;;;;;;5017339;28;20120;-83
2023/05/24 08:31:13;;;;;;;9.23;3.30;;;20.30;82.30;;;;;;5025859;28;20034;-82
2023/05/24 08:33:39;;;;;;;10.57;3.63;;;20.60;78.20;;;;;;5032346;28;20087;-82
2023/05/24 08:36:05;;;;;;;14.70;3.53;;;20.70;81.60;;;;;;5020185;28;20026;-83
2023/05/24 08:38:40;;;;;;;12.68;3.92;;;20.70;81.30;;;;;;5023589;28;20030;-82
2023/05/24 08:41:07;;;;;;;14.95;4.38;;;20.80;79.90;;;;;;5028146;28;20037;-82
2023/05/24 08:43:34;;;;;;;14.13;4.22;;;21.20;80.50;;;;;;5029880;28;20041;-83
2023/05/24 08:46:01;;;;;;;15.57;3.50;;;21.00;75.10;;;;;;5019806;28;20032;-81
2023/05/24 08:48:27;;;;;;;13.23;3.78;;;20.90;75.20;;;;;;5027851;28;20038;-81
2023/05/24 08:50:54;;;;;;;21.27;3.70;;;20.30;70.40;;;;;;5021280;28;20041;-81
2023/05/24 08:53:22;;;;;;;10.48;3.25;;;18.90;72.90;;;;;;5029723;28;20037;-81
2023/05/24 08:55:52;;;;;;;7.90;3.22;;;19.20;75.30;;;;;;5031202;28;20067;-81
2023/05/24 08:58:18;;;;;;;10.23;3.55;;;18.90;74.80;;;;;;5027419;28;20033;-81
2023/05/24 09:00:44;;;;;;;14.27;3.78;;;19.00;74.70;;;;;;5038087;28;20374;-81
2023/05/24 09:03:11;;;;;;;10.50;3.42;;;18.60;74.30;;;;;;5027739;28;20080;-81
2023/05/24 09:05:38;;;;;;;11.40;3.50;;;17.60;75.40;;;;;;5004482;28;20076;-82
2023/05/24 09:08:05;;;;;;;13.98;3.30;;;17.30;79.30;;;;;;5024777;28;20052;-81
2023/05/24 09:10:32;;;;;;;10.98;3.80;;;17.70;78.90;;;;;;5017789;28;20037;-81
2023/05/24 09:13:01;;;;;;;12.65;3.72;;;18.00;78.60;;;;;;5024718;28;20045;-81
2023/05/24 09:15:28;;;;;;;11.70;4.15;;;18.00;82.50;;;;;;5045806;28;20399;-82
2023/05/24 09:17:54;;;;;;;22.00;4.65;;;17.50;88.10;;;;;;5032079;28;20068;-82
2023/05/24 09:20:20;;;;;;;10.43;3.65;;;17.20;89.50;;;;;;5047322;28;20061;-82
2023/05/24 09:22:51;;;;;;;15.45;4.30;;;17.00;89.20;;;;;;5025597;28;20029;-81
2023/05/24 09:25:19;;;;;;;20.70;3.85;;;17.00;88.50;;;;;;5047962;28;20033;-82
2023/05/24 09:27:52;;;;;;;11.45;4.03;;;17.30;90.50;;;;;;5030911;28;20116;-82
2023/05/24 09:30:18;;;;;;;16.10;4.22;;;17.10;90.60;;;;;;5027577;28;20029;-82
2023/05/24 09:32:57;;;;;;;15.10;3.70;;;16.80;91.30;;;;;;5030638;28;20138;-82
2023/05/24 09:35:25;;;;;;;14.90;4.60;;;17.00;90.30;;;;;;5027237;28;20033;-82
2023/05/24 09:37:56;;;;;;;11.57;3.97;;;17.60;89.70;;;;;;5026303;28;20025;-82
2023/05/24 09:40:22;;;;;;;14.52;4.13;;;18.40;89.50;;;;;;5046970;28;20033;-82
2023/05/24 09:42:51;;;;;;;17.65;4.20;;;19.30;84.90;;;;;;5037244;28;20096;-83
2023/05/24 09:45:17;;;;;;;13.85;3.60;;;19.80;79.30;;;;;;5024670;28;20563;-82
2023/05/24 09:47:44;;;;;;;8.15;3.30;;;20.00;77.10;;;;;;5021293;28;20030;-82
2023/05/24 09:50:16;;;;;;;9.18;3.30;;;20.70;78.60;;;;;;5022580;28;20030;-83
2023/05/24 09:52:43;;;;;;;11.80;3.80;;;21.30;73.50;;;;;;5025652;28;20029;-82
2023/05/24 09:55:16;;;;;;;9.57;3.53;;;21.40;72.50;;;;;;5028284;28;20021;-82
2023/05/24 09:58:04;;;;;;;10.20;3.85;;;22.10;72.80;;;;;;5030829;28;20033;-82
2023/05/24 10:00:35;;;;;;;25.20;4.28;;;21.90;66.00;;;;;;5026309;28;20033;-82
2023/05/24 10:03:02;;;;;;;11.90;3.15;;;21.70;66.20;;;;;;5022636;28;20042;-82
2023/05/24 10:05:29;;;;;;;10.70;3.47;;;21.90;65.40;;;;;;5028518;28;20045;-82
2023/05/24 10:07:58;;;;;;;9.52;2.72;;;21.60;65.60;;;;;;5031424;28;20120;-82
2023/05/24 10:10:41;;;;;;;11.80;3.10;;;21.50;65.90;;;;;;5024649;28;20072;-82
2023/05/24 10:13:06;;;;;;;12.63;3.63;;;21.70;67.30;;;;;;5019027;28;20358;-82
2023/05/24 10:15:32;;;;;;;12.18;3.30;;;21.40;69.40;;;;;;5025380;28;20034;-82
2023/05/24 10:18:00;;;;;;;8.60;3.00;;;20.60;66.60;;;;;;5036370;28;20483;-82
2023/05/24 10:20:27;;;;;;;9.65;3.03;;;20.50;65.60;;;;;;5036840;28;20026;-82
2023/05/24 10:22:59;;;;;;;12.20;3.13;;;20.40;65.40;;;;;;5023212;28;20557;-83
2023/05/24 10:25:27;;;;;;;10.55;3.53;;;20.50;68.00;;;;;;5023117;28;20033;-82
2023/05/24 10:28:06;;;;;;;10.40;3.30;;;19.70;71.10;;;;;;5039016;28;20025;-82
2023/05/24 10:30:46;;;;;;;10.45;3.13;;;19.80;68.40;;;;;;5032909;28;20045;-82
2023/05/24 10:33:13;;;;;;;13.57;3.58;;;20.00;71.10;;;;;;5036070;28;20037;-82
2023/05/24 10:35:39;;;;;;;8.85;3.25;;;19.70;70.10;;;;;;5030965;28;20029;-82
2023/05/24 10:38:08;;;;;;;12.27;3.78;;;19.40;71.40;;;;;;5029414;28;20385;-82
2023/05/24 10:40:41;;;;;;;16.70;3.70;;;18.20;74.30;;;;;;5032060;28;20033;-82
2023/05/24 10:43:08;;;;;;;11.20;3.17;;;17.50;72.90;;;;;;5029338;28;20086;-82
2023/05/24 10:45:37;;;;;;;15.07;3.60;;;17.00;76.10;;;;;;5030769;28;20439;-82
2023/05/24 10:48:12;;;;;;;13.15;3.90;;;16.60;80.00;;;;;;5028026;28;20044;-81
2023/05/24 10:50:39;;;;;;;13.43;4.43;;;15.90;83.50;;;;;;5025960;28;20084;-82
2023/05/24 10:53:14;;;;;;;17.58;3.72;;;15.80;87.20;;;;;;5046370;28;20112;-82
2023/05/24 10:56:07;;;;;;;16.02;4.13;;;16.00;87.10;;;;;;5021942;28;20133;-81
2023/05/24 10:58:33;;;;;;;12.43;3.35;;;16.30;84.70;;;;;;5030430;28;20034;-82
2023/05/24 11:00:58;;;;;;;13.20;4.60;;;16.50;86.30;;;;;;5031253;28;20500;-82
2023/05/24 11:03:31;;;;;;;13.63;3.45;;;17.00;85.10;;;;;;5022796;28;20038;-82
2023/05/24 11:05:56;;;;;;;11.95;3.95;;;17.20;80.70;;;;;;5018024;28;20054;-82
2023/05/24 11:08:30;;;;;;;12.30;3.85;;;17.10;83.40;;;;;;5023801;28;20080;-82
2023/05/24 11:11:11;;;;;;;11.90;4.03;;;16.70;80.30;;;;;;5029220;28;20469;-82
2023/05/24 11:14:01;;;;;;;13.52;4.10;;;17.00;80.50;;;;;;5039124;28;20033;-82
2023/05/24 11:16:38;;;;;;;13.68;3.67;;;17.10;80.70;;;;;;5031440;28;20409;-82
2023/05/24 11:19:18;;;;;;;13.27;3.28;;;17.30;80.80;;;;;;5033338;28;20037;-83
2023/05/24 11:21:45;;;;;;;9.60;3.13;;;17.80;83.70;;;;;;5016842;28;20033;-83
2023/05/24 11:24:11;;;;;;;13.02;3.45;;;18.10;80.20;;;;;;5017039;28;20025;-82
2023/05/24 11:26:38;;;;;;;15.02;3.85;;;18.40;77.30;;;;;;5015006;28;20489;-82
2023/05/24 11:29:05;;;;;;;9.93;3.40;;;18.70;80.10;;;;;;5032211;28;20037;-82
2023/05/24 11:31:30;;;;;;;12.40;3.45;;;18.50;79.10;;;;;;5016680;28;20084;-82
2023/05/24 11:33:56;;;;;;;16.85;4.18;;;18.40;77.70;;;;;;5022345;28;20029;-82
2023/05/24 11:36:22;;;;;;;15.52;3.60;;;18.50;81.70;;;;;;5038112;28;20025;-82
2023/05/24 11:38:48;;;;;;;9.93;3.70;;;18.80;82.60;;;;;;5035729;28;20122;-80
2023/05/24 11:41:15;;;;;;;18.80;3.95;;;18.80;78.90;;;;;;5032630;28;20038;-82
2023/05/24 11:43:41;;;;;;;15.00;3.45;;;18.60;81.80;;;;;;5028932;28;20034;-82
2023/05/24 11:46:07;;;;;;;16.25;3.70;;;18.90;78.50;;;;;;5029363;28;20488;-81
2023/05/24 11:48:33;;;;;;;17.73;4.07;;;18.80;78.20;;;;;;5022933;28;20109;-81
2023/05/24 11:50:59;;;;;;;15.00;3.50;;;18.60;78.20;;;;;;5033034;28;20029;-81
2023/05/24 11:53:25;;;;;;;15.75;3.67;;;18.80;76.50;;;;;;5023012;28;20035;-81
2023/05/24 11:55:53;;;;;;;16.48;4.13;;;19.10;77.80;;;;;;5017536;28;20115;-83
2023/05/24 11:58:24;;;;;;;14.32;4.00;;;18.70;81.50;;;;;;5015707;28;20081;-82
2023/05/24 12:00:50;;;;;;;10.73;4.00;;;18.00;82.50;;;;;;5042204;28;20087;-82
2023/05/24 12:03:16;;;;;;;20.30;4.65;;;17.20;83.20;;;;;;5039029;28;20041;-82
2023/05/24 12:05:43;;;;;;;14.85;3.88;;;17.20;85.60;;;;;;5028923;28;20095;-80
2023/05/24 12:08:14;;;;;;;18.15;4.47;;;17.20;80.50;;;;;;5032609;28;20432;-81
2023/05/24 12:10:41;;;;;;;;;;;17.40;81.70;;;;;;5029715;28;20073;-81
2023/05/24 12:13:20;;;;;;;11.25;3.70;;;17.20;82.50;;;;;;5018446;28;19920;-81
2023/05/24 12:15:52;;;;;;;10.73;3.22;;;17.20;83.10;;;;;;5025660;28;20029;-80
2023/05/24 12:18:23;;;;;;;13.43;3.88;;;17.30;81.10;;;;;;5029706;28;20489;-82
2023/05/24 12:20:57;;;;;;;15.00;3.75;;;17.70;79.90;;;;;;5110713;27;20312;-82
2023/05/24 12:23:28;;;;;;;10.68;3.33;;;18.00;76.60;;;;;;5094848;28;20040;-82
2023/05/24 12:25:58;;;;;;;10.05;2.95;;;18.50;73.80;;;;;;5072200;28;20613;-82
2023/05/24 12:28:24;;;;;;;10.20;3.50;;;19.10;71.60;;;;;;5088913;28;20046;-83
2023/05/24 12:30:50;;;;;;;8.35;2.55;;;19.80;68.50;;;;;;5089667;28;20279;-82
2023/05/24 12:33:19;;;;;;;7.63;3.10;;;20.70;67.40;;;;;;5072656;28;20033;-82
2023/05/24 12:35:46;;;;;;;11.77;3.65;;;21.70;64.50;;;;;;5072240;28;20371;-82
2023/05/24 12:38:12;;;;;;;12.13;3.78;;;21.90;67.90;;;;;;5090433;28;20032;-82
2023/05/24 12:40:42;;;;;;;13.85;4.25;;;21.20;72.10;;;;;;5105936;28;20035;-82
2023/05/24 12:43:09;;;;;;;10.35;3.60;;;20.60;67.50;;;;;;5073033;28;20090;-82
2023/05/24 12:45:36;;;;;;;9.02;3.15;;;21.10;67.00;;;;;;5073386;28;20024;-83
2023/05/24 12:48:03;;;;;;;10.25;3.63;;;21.30;65.80;;;;;;5071950;28;20077;-83